sensor_id;sensor_type;location;lat;lon;timestamp;pressure;altitude;pressure_sealevel;temperature;humidity
9525;BME280;15940;48.734;9.112;2022-08-19T00:00:18;96192.31;;;19.58;68.90
9525;BME280;15940;48.734;9.112;2022-08-19T00:02:45;96189.75;;;19.60;68.68
9525;BME280;15940;48.734;9.112;2022-08-19T00:05:14;96186.47;;;19.54;69.39
9525;BME280;15940;48.734;9.112;2022-08-19T00:07:41;96178.78;;;19.53;69.75
9525;BME280;15940;48.734;9.112;2022-08-19T00:10:11;96180.97;;;19.54;69.27
9525;BME280;15940;48.734;9.112;2022-08-19T00:12:38;96188.69;;;19.56;69.39
9525;BME280;15940;48.734;9.112;2022-08-19T00:15:12;96199.66;;;19.56;69.55
9525;BME280;15940;48.734;9.112;2022-08-19T00:17:41;96201.66;;;19.55;69.29
9525;BME280;15940;48.734;9.112;2022-08-19T00:20:10;96198.00;;;19.53;69.49
9525;BME280;15940;48.734;9.112;2022-08-19T00:22:38;96202.22;;;19.54;69.10
9525;BME280;15940;48.734;9.112;2022-08-19T00:25:07;96205.31;;;19.50;69.30
9525;BME280;15940;48.734;9.112;2022-08-19T00:27:34;96191.59;;;19.50;69.46
9525;BME280;15940;48.734;9.112;2022-08-19T00:30:03;96201.28;;;19.51;69.66
9525;BME280;15940;48.734;9.112;2022-08-19T00:32:31;96192.16;;;19.49;69.30
9525;BME280;15940;48.734;9.112;2022-08-19T00:35:00;96184.47;;;19.47;69.53
9525;BME280;15940;48.734;9.112;2022-08-19T00:37:27;96171.63;;;19.50;69.04
9525;BME280;15940;48.734;9.112;2022-08-19T00:39:54;96175.50;;;19.47;69.36
9525;BME280;15940;48.734;9.112;2022-08-19T00:42:22;96161.03;;;19.46;69.19
9525;BME280;15940;48.734;9.112;2022-08-19T00:44:49;96161.44;;;19.43;69.39
9525;BME280;15940;48.734;9.112;2022-08-19T00:47:17;96168.91;;;19.42;69.42
9525;BME280;15940;48.734;9.112;2022-08-19T00:49:49;96159.78;;;19.39;70.09
9525;BME280;15940;48.734;9.112;2022-08-19T00:52:21;96170.19;;;19.41;69.93
9525;BME280;15940;48.734;9.112;2022-08-19T00:54:51;96181.19;;;19.41;69.47
9525;BME280;15940;48.734;9.112;2022-08-19T00:57:26;96182.31;;;19.38;69.80
9525;BME280;15940;48.734;9.112;2022-08-19T00:59:56;96179.16;;;19.41;69.60
9525;BME280;15940;48.734;9.112;2022-08-19T01:02:25;96183.59;;;19.37;70.05
9525;BME280;15940;48.734;9.112;2022-08-19T01:04:55;96182.50;;;19.32;70.26
9525;BME280;15940;48.734;9.112;2022-08-19T01:07:22;96184.88;;;19.36;70.01
9525;BME280;15940;48.734;9.112;2022-08-19T01:09:49;96180.66;;;19.35;70.83
9525;BME280;15940;48.734;9.112;2022-08-19T01:12:17;96186.34;;;19.29;70.75
9525;BME280;15940;48.734;9.112;2022-08-19T01:14:45;96173.53;;;19.32;71.12
9525;BME280;15940;48.734;9.112;2022-08-19T01:17:13;96168.06;;;19.24;71.36
9525;BME280;15940;48.734;9.112;2022-08-19T01:19:43;96164.25;;;19.20;72.07
9525;BME280;15940;48.734;9.112;2022-08-19T01:22:19;96168.28;;;19.19;71.78
9525;BME280;15940;48.734;9.112;2022-08-19T01:24:50;96169.94;;;19.14;72.12
9525;BME280;15940;48.734;9.112;2022-08-19T01:27:18;96173.03;;;19.10;72.34
9525;BME280;15940;48.734;9.112;2022-08-19T01:29:45;96172.69;;;19.06;72.30
9525;BME280;15940;48.734;9.112;2022-08-19T01:32:15;96167.94;;;19.07;72.22
9525;BME280;15940;48.734;9.112;2022-08-19T01:34:43;96162.81;;;19.03;72.62
9525;BME280;15940;48.734;9.112;2022-08-19T01:37:14;96158.78;;;19.04;72.31
9525;BME280;15940;48.734;9.112;2022-08-19T01:39:42;96167.78;;;19.05;72.04
9525;BME280;15940;48.734;9.112;2022-08-19T01:42:10;96169.22;;;19.06;71.82
9525;BME280;15940;48.734;9.112;2022-08-19T01:44:38;96159.88;;;19.01;72.01
9525;BME280;15940;48.734;9.112;2022-08-19T01:47:07;96166.50;;;18.98;72.21
9525;BME280;15940;48.734;9.112;2022-08-19T01:49:35;96160.44;;;19.00;72.46
9525;BME280;15940;48.734;9.112;2022-08-19T01:52:04;96150.03;;;18.98;72.17
9525;BME280;15940;48.734;9.112;2022-08-19T01:54:32;96154.06;;;18.97;72.93
9525;BME280;15940;48.734;9.112;2022-08-19T01:57:03;96160.28;;;18.98;72.33
9525;BME280;15940;48.734;9.112;2022-08-19T01:59:32;96161.19;;;19.00;72.02
9525;BME280;15940;48.734;9.112;2022-08-19T02:02:02;96163.91;;;19.00;72.12
9525;BME280;15940;48.734;9.112;2022-08-19T02:04:32;96176.53;;;19.03;72.05
9525;BME280;15940;48.734;9.112;2022-08-19T02:06:59;96178.00;;;19.04;72.17
9525;BME280;15940;48.734;9.112;2022-08-19T02:09:26;96180.38;;;19.00;71.99
9525;BME280;15940;48.734;9.112;2022-08-19T02:11:53;96168.69;;;19.00;72.46
9525;BME280;15940;48.734;9.112;2022-08-19T02:14:20;96169.97;;;18.99;72.17
9525;BME280;15940;48.734;9.112;2022-08-19T02:16:48;96163.03;;;18.98;71.96
9525;BME280;15940;48.734;9.112;2022-08-19T02:19:15;96163.19;;;19.00;71.72
9525;BME280;15940;48.734;9.112;2022-08-19T02:21:42;96159.16;;;19.01;71.70
9525;BME280;15940;48.734;9.112;2022-08-19T02:24:10;96163.75;;;18.98;72.34
9525;BME280;15940;48.734;9.112;2022-08-19T02:26:37;96167.59;;;18.95;72.39
9525;BME280;15940;48.734;9.112;2022-08-19T02:29:04;96168.13;;;18.94;72.21
9525;BME280;15940;48.734;9.112;2022-08-19T02:31:31;96173.81;;;18.96;72.48
9525;BME280;15940;48.734;9.112;2022-08-19T02:34:00;96164.09;;;18.95;72.06
9525;BME280;15940;48.734;9.112;2022-08-19T02:36:27;96166.84;;;18.95;72.23
9525;BME280;15940;48.734;9.112;2022-08-19T02:38:55;96160.28;;;18.98;72.36
9525;BME280;15940;48.734;9.112;2022-08-19T02:41:24;96168.50;;;18.98;72.10
9525;BME280;15940;48.734;9.112;2022-08-19T02:43:52;96164.31;;;18.97;72.27
9525;BME280;15940;48.734;9.112;2022-08-19T02:46:22;96163.19;;;18.92;72.10
9525;BME280;15940;48.734;9.112;2022-08-19T02:48:51;96154.78;;;18.90;72.35
9525;BME280;15940;48.734;9.112;2022-08-19T02:51:24;96153.34;;;18.89;72.45
9525;BME280;15940;48.734;9.112;2022-08-19T02:53:51;96158.28;;;18.91;72.67
9525;BME280;15940;48.734;9.112;2022-08-19T02:56:19;96156.44;;;18.86;72.67
9525;BME280;15940;48.734;9.112;2022-08-19T02:58:47;96149.31;;;18.82;72.55
9525;BME280;15940;48.734;9.112;2022-08-19T03:01:21;96152.63;;;18.81;72.60
9525;BME280;15940;48.734;9.112;2022-08-19T03:03:48;96144.56;;;18.83;72.75
9525;BME280;15940;48.734;9.112;2022-08-19T03:06:16;96160.69;;;18.79;73.25
9525;BME280;15940;48.734;9.112;2022-08-19T03:08:47;96160.84;;;18.81;73.23
9525;BME280;15940;48.734;9.112;2022-08-19T03:11:18;96163.59;;;18.81;73.30
9525;BME280;15940;48.734;9.112;2022-08-19T03:13:45;96164.88;;;18.80;73.13
9525;BME280;15940;48.734;9.112;2022-08-19T03:16:15;96174.41;;;18.79;73.07
9525;BME280;15940;48.734;9.112;2022-08-19T03:18:42;96182.63;;;18.79;73.34
9525;BME280;15940;48.734;9.112;2022-08-19T03:21:15;96177.88;;;18.79;73.21
9525;BME280;15940;48.734;9.112;2022-08-19T03:23:44;96169.09;;;18.73;73.39
9525;BME280;15940;48.734;9.112;2022-08-19T03:26:11;96170.75;;;18.76;73.31
9525;BME280;15940;48.734;9.112;2022-08-19T03:28:40;96164.50;;;18.76;73.38
9525;BME280;15940;48.734;9.112;2022-08-19T03:31:11;96165.63;;;18.73;73.53
9525;BME280;15940;48.734;9.112;2022-08-19T03:33:40;96163.06;;;18.67;73.53
9525;BME280;15940;48.734;9.112;2022-08-19T03:36:10;96162.34;;;18.67;73.93
9525;BME280;15940;48.734;9.112;2022-08-19T03:38:42;96168.56;;;18.67;73.68
9525;BME280;15940;48.734;9.112;2022-08-19T03:41:14;96168.00;;;18.69;73.94
9525;BME280;15940;48.734;9.112;2022-08-19T03:43:42;96158.47;;;18.62;73.82
9525;BME280;15940;48.734;9.112;2022-08-19T03:46:14;96166.34;;;18.66;74.18
9525;BME280;15940;48.734;9.112;2022-08-19T03:48:43;96164.69;;;18.63;74.00
9525;BME280;15940;48.734;9.112;2022-08-19T03:51:17;96155.72;;;18.62;74.24
9525;BME280;15940;48.734;9.112;2022-08-19T03:53:46;96157.75;;;18.62;74.00
9525;BME280;15940;48.734;9.112;2022-08-19T03:56:15;96160.47;;;18.62;73.89
9525;BME280;15940;48.734;9.112;2022-08-19T03:58:42;96169.44;;;18.62;74.27
9525;BME280;15940;48.734;9.112;2022-08-19T04:01:14;96184.63;;;18.63;74.29
9525;BME280;15940;48.734;9.112;2022-08-19T04:03:41;96176.75;;;18.60;73.93
9525;BME280;15940;48.734;9.112;2022-08-19T04:06:13;96186.63;;;18.55;74.54
9525;BME280;15940;48.734;9.112;2022-08-19T04:08:41;96183.34;;;18.56;73.80
9525;BME280;15940;48.734;9.112;2022-08-19T04:11:10;96182.41;;;18.54;74.59
9525;BME280;15940;48.734;9.112;2022-08-19T04:13:39;96176.59;;;18.50;74.15
9525;BME280;15940;48.734;9.112;2022-08-19T04:16:08;96176.59;;;18.50;74.25
9525;BME280;15940;48.734;9.112;2022-08-19T04:18:38;96174.19;;;18.46;74.40
9525;BME280;15940;48.734;9.112;2022-08-19T04:21:07;96184.97;;;18.44;74.46
9525;BME280;15940;48.734;9.112;2022-08-19T04:23:35;96183.34;;;18.41;74.55
9525;BME280;15940;48.734;9.112;2022-08-19T04:26:02;96176.19;;;18.46;74.96
9525;BME280;15940;48.734;9.112;2022-08-19T04:28:29;96177.88;;;18.49;74.51
9525;BME280;15940;48.734;9.112;2022-08-19T04:30:58;96179.31;;;18.50;74.27
9525;BME280;15940;48.734;9.112;2022-08-19T04:33:25;96161.75;;;18.45;74.18
9525;BME280;15940;48.734;9.112;2022-08-19T04:35:54;96159.75;;;18.46;74.03
9525;BME280;15940;48.734;9.112;2022-08-19T04:38:22;96165.44;;;18.48;74.41
9525;BME280;15940;48.734;9.112;2022-08-19T04:40:51;96171.09;;;18.50;74.23
9525;BME280;15940;48.734;9.112;2022-08-19T04:43:38;96175.66;;;18.47;73.95
9525;BME280;15940;48.734;9.112;2022-08-19T04:46:08;96170.16;;;18.47;74.11
9525;BME280;15940;48.734;9.112;2022-08-19T04:48:37;96177.31;;;18.50;73.77
9525;BME280;15940;48.734;9.112;2022-08-19T04:51:09;96177.13;;;18.48;74.64
9525;BME280;15940;48.734;9.112;2022-08-19T04:53:39;96176.03;;;18.51;74.19
9525;BME280;15940;48.734;9.112;2022-08-19T04:56:11;96184.25;;;18.51;74.40
9525;BME280;15940;48.734;9.112;2022-08-19T04:58:41;96184.25;;;18.59;73.92
9525;BME280;15940;48.734;9.112;2022-08-19T05:01:12;96171.44;;;18.54;74.12
9525;BME280;15940;48.734;9.112;2022-08-19T05:03:40;96189.38;;;18.55;74.33
9525;BME280;15940;48.734;9.112;2022-08-19T05:06:10;96189.03;;;18.59;74.24
9525;BME280;15940;48.734;9.112;2022-08-19T05:08:39;96177.13;;;18.56;74.61
9525;BME280;15940;48.734;9.112;2022-08-19T05:11:11;96193.03;;;18.50;74.44
9525;BME280;15940;48.734;9.112;2022-08-19T05:13:38;96197.78;;;18.49;74.75
9525;BME280;15940;48.734;9.112;2022-08-19T05:16:06;96203.47;;;18.51;74.55
9525;BME280;15940;48.734;9.112;2022-08-19T05:18:34;96208.56;;;18.55;74.52
9525;BME280;15940;48.734;9.112;2022-08-19T05:21:20;96221.00;;;18.56;74.25
9525;BME280;15940;48.734;9.112;2022-08-19T05:24:06;96225.56;;;18.53;74.59
9525;BME280;15940;48.734;9.112;2022-08-19T05:26:34;96244.22;;;18.55;74.53
9525;BME280;15940;48.734;9.112;2022-08-19T05:29:02;96256.66;;;18.56;74.40
9525;BME280;15940;48.734;9.112;2022-08-19T05:31:29;96256.66;;;18.56;74.41
9525;BME280;15940;48.734;9.112;2022-08-19T05:33:57;96262.88;;;18.56;74.51
9525;BME280;15940;48.734;9.112;2022-08-19T05:36:25;96270.75;;;18.60;74.50
9525;BME280;15940;48.734;9.112;2022-08-19T05:38:53;96276.06;;;18.58;74.71
9525;BME280;15940;48.734;9.112;2022-08-19T05:41:22;96275.69;;;18.62;74.26
9525;BME280;15940;48.734;9.112;2022-08-19T05:43:56;96271.66;;;18.63;74.26
9525;BME280;15940;48.734;9.112;2022-08-19T05:46:23;96268.19;;;18.62;74.27
9525;BME280;15940;48.734;9.112;2022-08-19T05:48:50;96264.91;;;18.64;74.24
9525;BME280;15940;48.734;9.112;2022-08-19T05:51:18;96269.13;;;18.65;74.32
9525;BME280;15940;48.734;9.112;2022-08-19T05:53:45;96271.66;;;18.63;73.83
9525;BME280;15940;48.734;9.112;2022-08-19T05:56:15;96271.13;;;18.64;74.15
9525;BME280;15940;48.734;9.112;2022-08-19T05:58:44;96272.81;;;18.67;74.45
9525;BME280;15940;48.734;9.112;2022-08-19T06:01:15;96265.84;;;18.66;74.26
9525;BME280;15940;48.734;9.112;2022-08-19T06:03:43;96265.66;;;18.72;74.39
9525;BME280;15940;48.734;9.112;2022-08-19T06:06:12;96273.34;;;18.73;74.01
9525;BME280;15940;48.734;9.112;2022-08-19T06:08:41;96265.13;;;18.73;73.98
9525;BME280;15940;48.734;9.112;2022-08-19T06:11:20;96277.75;;;18.76;73.95
9525;BME280;15940;48.734;9.112;2022-08-19T06:13:49;96269.31;;;18.74;74.00
9525;BME280;15940;48.734;9.112;2022-08-19T06:16:19;96270.44;;;18.71;73.70
9525;BME280;15940;48.734;9.112;2022-08-19T06:18:49;96271.53;;;18.68;73.91
9525;BME280;15940;48.734;9.112;2022-08-19T06:21:18;96268.78;;;18.68;74.02
9525;BME280;15940;48.734;9.112;2022-08-19T06:23:47;96269.69;;;18.71;74.18
9525;BME280;15940;48.734;9.112;2022-08-19T06:26:16;96264.94;;;18.71;74.18
9525;BME280;15940;48.734;9.112;2022-08-19T06:28:44;96267.69;;;18.71;74.28
9525;BME280;15940;48.734;9.112;2022-08-19T06:31:13;96265.84;;;18.74;74.20
9525;BME280;15940;48.734;9.112;2022-08-19T06:33:41;96275.00;;;18.76;74.17
9525;BME280;15940;48.734;9.112;2022-08-19T06:36:18;96278.13;;;18.80;74.00
9525;BME280;15940;48.734;9.112;2022-08-19T06:38:46;96270.06;;;18.82;74.04
9525;BME280;15940;48.734;9.112;2022-08-19T06:41:13;96274.09;;;18.81;73.96
9525;BME280;15940;48.734;9.112;2022-08-19T06:43:40;96272.81;;;18.82;73.97
9525;BME280;15940;48.734;9.112;2022-08-19T06:46:12;96274.09;;;18.81;73.83
9525;BME280;15940;48.734;9.112;2022-08-19T06:48:39;96266.97;;;18.78;74.03
9525;BME280;15940;48.734;9.112;2022-08-19T06:51:06;96283.25;;;18.76;74.04
9525;BME280;15940;48.734;9.112;2022-08-19T06:53:33;96280.50;;;18.76;74.49
9525;BME280;15940;48.734;9.112;2022-08-19T06:56:02;96275.91;;;18.79;74.65
9525;BME280;15940;48.734;9.112;2022-08-19T06:58:29;96285.63;;;18.80;74.75
9525;BME280;15940;48.734;9.112;2022-08-19T07:01:00;96285.06;;;18.81;75.75
9525;BME280;15940;48.734;9.112;2022-08-19T07:03:30;96281.94;;;18.85;76.24
9525;BME280;15940;48.734;9.112;2022-08-19T07:05:58;96288.91;;;18.78;76.62
9525;BME280;15940;48.734;9.112;2022-08-19T07:08:29;96295.28;;;18.73;77.34
9525;BME280;15940;48.734;9.112;2022-08-19T07:10:55;96295.06;;;18.64;77.33
9525;BME280;15940;48.734;9.112;2022-08-19T07:13:24;96290.69;;;18.61;77.24
9525;BME280;15940;48.734;9.112;2022-08-19T07:15:51;96282.25;;;18.51;77.45
9525;BME280;15940;48.734;9.112;2022-08-19T07:18:19;96299.06;;;18.47;77.39
9525;BME280;15940;48.734;9.112;2022-08-19T07:20:47;96293.94;;;18.44;78.59
9525;BME280;15940;48.734;9.112;2022-08-19T07:23:14;96299.81;;;18.40;78.60
9525;BME280;15940;48.734;9.112;2022-08-19T07:25:41;96296.88;;;18.38;78.46
9525;BME280;15940;48.734;9.112;2022-08-19T07:28:08;96296.88;;;18.38;78.58
9525;BME280;15940;48.734;9.112;2022-08-19T07:30:43;96297.25;;;18.42;78.96
9525;BME280;15940;48.734;9.112;2022-08-19T07:33:10;96303.28;;;18.41;79.06
9525;BME280;15940;48.734;9.112;2022-08-19T07:35:37;96298.34;;;18.39;78.47
9525;BME280;15940;48.734;9.112;2022-08-19T07:38:04;96300.88;;;18.37;78.76
9525;BME280;15940;48.734;9.112;2022-08-19T07:40:31;96303.44;;;18.35;78.51
9525;BME280;15940;48.734;9.112;2022-08-19T07:42:58;96298.69;;;18.36;78.71
9525;BME280;15940;48.734;9.112;2022-08-19T07:45:25;96296.31;;;18.40;78.71
9525;BME280;15940;48.734;9.112;2022-08-19T07:47:54;96303.09;;;18.46;78.69
9525;BME280;15940;48.734;9.112;2022-08-19T07:50:21;96301.44;;;18.43;78.10
9525;BME280;15940;48.734;9.112;2022-08-19T07:52:49;96304.03;;;18.49;77.80
9525;BME280;15940;48.734;9.112;2022-08-19T07:55:21;96306.94;;;18.51;77.58
9525;BME280;15940;48.734;9.112;2022-08-19T07:57:49;96303.47;;;18.50;77.56
9525;BME280;15940;48.734;9.112;2022-08-19T08:00:17;96294.69;;;18.52;78.15
9525;BME280;15940;48.734;9.112;2022-08-19T08:02:44;96300.75;;;18.58;77.81
9525;BME280;15940;48.734;9.112;2022-08-19T08:05:13;96296.72;;;18.59;77.13
9525;BME280;15940;48.734;9.112;2022-08-19T08:08:00;96296.34;;;18.63;77.47
9525;BME280;15940;48.734;9.112;2022-08-19T08:10:44;96295.28;;;18.66;76.70
9525;BME280;15940;48.734;9.112;2022-08-19T08:13:11;96305.53;;;18.65;76.48
9525;BME280;15940;48.734;9.112;2022-08-19T08:15:38;96306.78;;;18.64;76.62
9525;BME280;15940;48.734;9.112;2022-08-19T08:18:05;96308.28;;;18.65;76.49
9525;BME280;15940;48.734;9.112;2022-08-19T08:20:34;96316.28;;;18.63;76.27
9525;BME280;15940;48.734;9.112;2022-08-19T08:23:01;96314.81;;;18.62;76.34
9525;BME280;15940;48.734;9.112;2022-08-19T08:25:46;96313.75;;;18.65;75.88
9525;BME280;15940;48.734;9.112;2022-08-19T08:28:14;96316.50;;;18.65;76.40
9525;BME280;15940;48.734;9.112;2022-08-19T08:30:42;96315.22;;;18.66;76.59
9525;BME280;15940;48.734;9.112;2022-08-19T08:33:09;96318.34;;;18.70;76.35
9525;BME280;15940;48.734;9.112;2022-08-19T08:35:40;96317.06;;;18.71;76.28
9525;BME280;15940;48.734;9.112;2022-08-19T08:38:08;96316.50;;;18.73;76.17
9525;BME280;15940;48.734;9.112;2022-08-19T08:40:44;96311.94;;;18.75;76.09
9525;BME280;15940;48.734;9.112;2022-08-19T08:43:22;96319.09;;;18.78;76.32
9525;BME280;15940;48.734;9.112;2022-08-19T08:45:56;96315.25;;;18.81;76.20
9525;BME280;15940;48.734;9.112;2022-08-19T08:48:36;96320.00;;;18.89;76.15
9525;BME280;15940;48.734;9.112;2022-08-19T08:51:10;96309.03;;;18.89;75.34
9525;BME280;15940;48.734;9.112;2022-08-19T08:53:39;96309.56;;;18.95;76.44
9525;BME280;15940;48.734;9.112;2022-08-19T08:56:09;96312.50;;;19.04;75.87
9525;BME280;15940;48.734;9.112;2022-08-19T08:58:48;96311.59;;;19.09;75.60
9525;BME280;15940;48.734;9.112;2022-08-19T09:01:17;96313.78;;;19.19;74.96
9525;BME280;15940;48.734;9.112;2022-08-19T09:03:45;96313.59;;;19.24;74.95
9525;BME280;15940;48.734;9.112;2022-08-19T09:06:22;96311.94;;;19.29;74.50
9525;BME280;15940;48.734;9.112;2022-08-19T09:08:59;96311.94;;;19.29;74.51
9525;BME280;15940;48.734;9.112;2022-08-19T09:11:44;96318.00;;;19.27;74.70
9525;BME280;15940;48.734;9.112;2022-08-19T09:14:29;96326.03;;;19.33;74.30
9525;BME280;15940;48.734;9.112;2022-08-19T09:16:59;96324.22;;;19.35;74.35
9525;BME280;15940;48.734;9.112;2022-08-19T09:19:30;96331.72;;;19.35;74.00
9525;BME280;15940;48.734;9.112;2022-08-19T09:21:58;96325.84;;;19.38;74.38
9525;BME280;15940;48.734;9.112;2022-08-19T09:24:26;96324.94;;;19.44;74.20
9525;BME280;15940;48.734;9.112;2022-08-19T09:26:53;96329.50;;;19.49;73.99
9525;BME280;15940;48.734;9.112;2022-08-19T09:29:20;96330.59;;;19.53;73.65
9525;BME280;15940;48.734;9.112;2022-08-19T09:31:47;96331.72;;;19.58;72.99
9525;BME280;15940;48.734;9.112;2022-08-19T09:34:15;96325.47;;;19.57;73.01
9525;BME280;15940;48.734;9.112;2022-08-19T09:36:41;96326.38;;;19.60;73.13
9525;BME280;15940;48.734;9.112;2022-08-19T09:39:10;96330.03;;;19.70;72.80
9525;BME280;15940;48.734;9.112;2022-08-19T09:41:37;96316.28;;;19.70;72.93
9525;BME280;15940;48.734;9.112;2022-08-19T09:44:04;96321.25;;;19.72;72.34
9525;BME280;15940;48.734;9.112;2022-08-19T09:46:30;96331.69;;;19.73;72.54
9525;BME280;15940;48.734;9.112;2022-08-19T09:48:59;96338.09;;;19.76;72.67
9525;BME280;15940;48.734;9.112;2022-08-19T09:51:27;96334.94;;;19.79;72.94
9525;BME280;15940;48.734;9.112;2022-08-19T09:53:59;96335.50;;;19.85;72.31
9525;BME280;15940;48.734;9.112;2022-08-19T09:56:29;96338.41;;;19.87;72.65
9525;BME280;15940;48.734;9.112;2022-08-19T09:58:58;96338.06;;;19.91;72.07
9525;BME280;15940;48.734;9.112;2022-08-19T10:01:28;96340.25;;;19.92;72.47
9525;BME280;15940;48.734;9.112;2022-08-19T10:03:58;96342.25;;;19.92;71.90
9525;BME280;15940;48.734;9.112;2022-08-19T10:06:27;96334.34;;;19.96;71.34
9525;BME280;15940;48.734;9.112;2022-08-19T10:08:56;96334.75;;;19.92;72.12
9525;BME280;15940;48.734;9.112;2022-08-19T10:11:23;96337.09;;;19.96;71.56
9525;BME280;15940;48.734;9.112;2022-08-19T10:13:51;96340.03;;;19.98;71.46
9525;BME280;15940;48.734;9.112;2022-08-19T10:16:21;96333.44;;;20.01;71.73
9525;BME280;15940;48.734;9.112;2022-08-19T10:18:49;96335.97;;;20.07;72.03
9525;BME280;15940;48.734;9.112;2022-08-19T10:21:20;96338.88;;;20.09;71.29
9525;BME280;15940;48.734;9.112;2022-08-19T10:23:50;96337.78;;;20.12;71.31
9525;BME280;15940;48.734;9.112;2022-08-19T10:26:20;96338.53;;;20.12;71.31
9525;BME280;15940;48.734;9.112;2022-08-19T10:28:48;96339.81;;;20.11;70.97
9525;BME280;15940;48.734;9.112;2022-08-19T10:31:20;96337.41;;;20.15;71.08
9525;BME280;15940;48.734;9.112;2022-08-19T10:33:49;96329.88;;;20.16;70.72
9525;BME280;15940;48.734;9.112;2022-08-19T10:36:24;96335.34;;;20.23;70.82
9525;BME280;15940;48.734;9.112;2022-08-19T10:38:54;96331.09;;;20.30;70.98
9525;BME280;15940;48.734;9.112;2022-08-19T10:41:26;96332.34;;;20.37;70.33
9525;BME280;15940;48.734;9.112;2022-08-19T10:43:55;96322.09;;;20.37;70.17
9525;BME280;15940;48.734;9.112;2022-08-19T10:46:26;96318.03;;;20.46;69.80
9525;BME280;15940;48.734;9.112;2022-08-19T10:48:54;96323.72;;;20.48;70.01
9525;BME280;15940;48.734;9.112;2022-08-19T10:51:21;96324.44;;;20.48;69.97
9525;BME280;15940;48.734;9.112;2022-08-19T10:54:06;96324.44;;;20.48;69.60
9525;BME280;15940;48.734;9.112;2022-08-19T10:56:34;96324.44;;;20.48;69.44
9525;BME280;15940;48.734;9.112;2022-08-19T10:59:21;96318.38;;;20.50;69.57
9525;BME280;15940;48.734;9.112;2022-08-19T11:01:50;96321.69;;;20.48;69.25
9525;BME280;15940;48.734;9.112;2022-08-19T11:04:19;96321.13;;;20.50;69.08
9525;BME280;15940;48.734;9.112;2022-08-19T11:06:47;96332.31;;;20.52;68.61
9525;BME280;15940;48.734;9.112;2022-08-19T11:09:16;96327.13;;;20.56;69.47
9525;BME280;15940;48.734;9.112;2022-08-19T11:11:44;96321.59;;;20.64;69.11
9525;BME280;15940;48.734;9.112;2022-08-19T11:14:15;96318.22;;;20.73;69.04
9525;BME280;15940;48.734;9.112;2022-08-19T11:16:44;96324.03;;;20.85;68.97
9525;BME280;15940;48.734;9.112;2022-08-19T11:19:13;96326.91;;;20.94;68.33
9525;BME280;15940;48.734;9.112;2022-08-19T11:21:44;96318.97;;;20.98;67.59
9525;BME280;15940;48.734;9.112;2022-08-19T11:24:14;96315.66;;;21.00;66.92
9525;BME280;15940;48.734;9.112;2022-08-19T11:26:43;96314.13;;;21.06;66.76
9525;BME280;15940;48.734;9.112;2022-08-19T11:29:12;96314.06;;;21.14;66.67
9525;BME280;15940;48.734;9.112;2022-08-19T11:31:42;96320.88;;;21.13;66.31
9525;BME280;15940;48.734;9.112;2022-08-19T11:34:15;96311.06;;;21.20;66.16
9525;BME280;15940;48.734;9.112;2022-08-19T11:36:44;96321.34;;;21.27;65.93
9525;BME280;15940;48.734;9.112;2022-08-19T11:39:16;96325.31;;;21.33;65.75
9525;BME280;15940;48.734;9.112;2022-08-19T11:41:43;96324.91;;;21.37;64.91
9525;BME280;15940;48.734;9.112;2022-08-19T11:44:11;96321.94;;;21.43;64.99
9525;BME280;15940;48.734;9.112;2022-08-19T11:46:40;96323.56;;;21.46;65.17
9525;BME280;15940;48.734;9.112;2022-08-19T11:49:10;96316.31;;;21.50;65.51
9525;BME280;15940;48.734;9.112;2022-08-19T11:51:38;96326.56;;;21.57;65.50
9525;BME280;15940;48.734;9.112;2022-08-19T11:54:05;96322.13;;;21.62;65.02
9525;BME280;15940;48.734;9.112;2022-08-19T11:56:33;96322.13;;;21.62;65.04
9525;BME280;15940;48.734;9.112;2022-08-19T11:59:01;96318.78;;;21.63;64.82
9525;BME280;15940;48.734;9.112;2022-08-19T12:01:28;96311.91;;;21.72;65.23
9525;BME280;15940;48.734;9.112;2022-08-19T12:03:56;96309.78;;;21.80;64.54
9525;BME280;15940;48.734;9.112;2022-08-19T12:06:26;96311.78;;;21.97;64.14
9525;BME280;15940;48.734;9.112;2022-08-19T12:08:56;96310.75;;;22.10;64.14
9525;BME280;15940;48.734;9.112;2022-08-19T12:11:25;96309.81;;;22.24;63.42
9525;BME280;15940;48.734;9.112;2022-08-19T12:13:53;96310.47;;;22.33;62.95
9525;BME280;15940;48.734;9.112;2022-08-19T12:16:24;96309.16;;;22.34;62.43
9525;BME280;15940;48.734;9.112;2022-08-19T12:18:53;96311.63;;;22.30;61.71
9525;BME280;15940;48.734;9.112;2022-08-19T12:21:24;96317.22;;;22.22;61.95
9525;BME280;15940;48.734;9.112;2022-08-19T12:23:57;96313.25;;;22.15;62.17
9525;BME280;15940;48.734;9.112;2022-08-19T12:26:26;96315.69;;;22.11;62.87
9525;BME280;15940;48.734;9.112;2022-08-19T12:28:54;96315.91;;;22.06;62.44
9525;BME280;15940;48.734;9.112;2022-08-19T12:31:21;96316.34;;;22.02;62.81
9525;BME280;15940;48.734;9.112;2022-08-19T12:33:48;96306.38;;;22.07;62.84
9525;BME280;15940;48.734;9.112;2022-08-19T12:36:16;96307.09;;;22.07;61.94
9525;BME280;15940;48.734;9.112;2022-08-19T12:38:44;96314.25;;;22.10;62.19
9525;BME280;15940;48.734;9.112;2022-08-19T12:41:16;96309.31;;;22.09;62.67
9525;BME280;15940;48.734;9.112;2022-08-19T12:43:44;96305.06;;;22.08;62.91
9525;BME280;15940;48.734;9.112;2022-08-19T12:46:12;96310.41;;;22.06;63.11
9525;BME280;15940;48.734;9.112;2022-08-19T12:48:39;96309.94;;;22.00;62.96
9525;BME280;15940;48.734;9.112;2022-08-19T12:51:10;96314.06;;;21.91;62.78
9525;BME280;15940;48.734;9.112;2022-08-19T12:53:37;96315.19;;;21.88;63.14
9525;BME280;15940;48.734;9.112;2022-08-19T12:56:05;96310.97;;;21.87;63.83
9525;BME280;15940;48.734;9.112;2022-08-19T12:58:34;96314.47;;;21.87;63.57
9525;BME280;15940;48.734;9.112;2022-08-19T13:01:07;96311.41;;;21.83;63.80
9525;BME280;15940;48.734;9.112;2022-08-19T13:03:34;96317.50;;;21.82;63.53
9525;BME280;15940;48.734;9.112;2022-08-19T13:06:01;96316.41;;;21.77;63.96
9525;BME280;15940;48.734;9.112;2022-08-19T13:08:27;96315.69;;;21.77;64.00
9525;BME280;15940;48.734;9.112;2022-08-19T13:10:54;96322.50;;;21.76;65.01
9525;BME280;15940;48.734;9.112;2022-08-19T13:13:21;96323.97;;;21.77;67.90
9525;BME280;15940;48.734;9.112;2022-08-19T13:15:52;96328.81;;;21.68;67.96
9525;BME280;15940;48.734;9.112;2022-08-19T13:18:19;96325.09;;;21.56;70.05
9525;BME280;15940;48.734;9.112;2022-08-19T13:20:46;96327.03;;;21.46;70.36